sensor_id;sensor_type;location;lat;lon;timestamp;P1;durP1;ratioP1;P2;durP2;ratioP2
26989;SDS011;14537;47.788;11.858;2023-12-07T00:02:12;6.50;;;3.78;;
26989;SDS011;14537;47.788;11.858;2023-12-07T00:04:43;7.95;;;4.70;;
26989;SDS011;14537;47.788;11.858;2023-12-07T00:07:09;10.85;;;5.05;;
26989;SDS011;14537;47.788;11.858;2023-12-07T00:09:34;6.53;;;4.15;;
26989;SDS011;14537;47.788;11.858;2023-12-07T00:12:00;9.27;;;5.05;;
26989;SDS011;14537;47.788;11.858;2023-12-07T00:14:25;7.38;;;3.90;;
26989;SDS011;14537;47.788;11.858;2023-12-07T00:16:51;8.90;;;4.40;;
26989;SDS011;14537;47.788;11.858;2023-12-07T00:19:17;9.50;;;4.90;;
26989;SDS011;14537;47.788;11.858;2023-12-07T00:21:42;9.95;;;4.78;;
26989;SDS011;14537;47.788;11.858;2023-12-07T00:24:08;9.25;;;4.45;;
26989;SDS011;14537;47.788;11.858;2023-12-07T00:26:33;8.82;;;4.22;;
26989;SDS011;14537;47.788;11.858;2023-12-07T00:28:59;9.15;;;5.03;;
26989;SDS011;14537;47.788;11.858;2023-12-07T00:31:24;7.57;;;4.30;;
26989;SDS011;14537;47.788;11.858;2023-12-07T00:33:51;9.40;;;4.47;;
26989;SDS011;14537;47.788;11.858;2023-12-07T00:36:16;10.38;;;5.45;;
26989;SDS011;14537;47.788;11.858;2023-12-07T00:38:42;10.68;;;5.55;;
26989;SDS011;14537;47.788;11.858;2023-12-07T00:41:07;9.07;;;5.00;;
26989;SDS011;14537;47.788;11.858;2023-12-07T00:43:33;11.48;;;5.68;;
26989;SDS011;14537;47.788;11.858;2023-12-07T00:45:59;9.98;;;5.57;;
26989;SDS011;14537;47.788;11.858;2023-12-07T00:48:25;11.02;;;5.70;;
26989;SDS011;14537;47.788;11.858;2023-12-07T00:50:50;11.40;;;5.53;;
26989;SDS011;14537;47.788;11.858;2023-12-07T00:53:16;10.57;;;5.88;;
26989;SDS011;14537;47.788;11.858;2023-12-07T00:55:42;10.40;;;5.57;;
26989;SDS011;14537;47.788;11.858;2023-12-07T00:58:07;11.00;;;5.60;;
26989;SDS011;14537;47.788;11.858;2023-12-07T01:00:33;10.27;;;5.22;;
26989;SDS011;14537;47.788;11.858;2023-12-07T01:02:58;10.50;;;5.80;;
26989;SDS011;14537;47.788;11.858;2023-12-07T01:05:24;14.48;;;6.07;;
26989;SDS011;14537;47.788;11.858;2023-12-07T01:07:50;15.80;;;5.68;;
26989;SDS011;14537;47.788;11.858;2023-12-07T01:10:16;14.23;;;6.43;;
26989;SDS011;14537;47.788;11.858;2023-12-07T01:12:42;12.65;;;6.05;;
26989;SDS011;14537;47.788;11.858;2023-12-07T01:15:07;13.23;;;5.80;;
26989;SDS011;14537;47.788;11.858;2023-12-07T01:17:33;13.45;;;6.03;;
26989;SDS011;14537;47.788;11.858;2023-12-07T01:19:59;13.63;;;6.57;;
26989;SDS011;14537;47.788;11.858;2023-12-07T01:22:24;14.05;;;6.68;;
26989;SDS011;14537;47.788;11.858;2023-12-07T01:24:50;11.35;;;5.82;;
26989;SDS011;14537;47.788;11.858;2023-12-07T01:27:16;15.63;;;6.68;;
26989;SDS011;14537;47.788;11.858;2023-12-07T01:29:41;11.10;;;5.78;;
26989;SDS011;14537;47.788;11.858;2023-12-07T01:32:07;12.38;;;6.78;;
26989;SDS011;14537;47.788;11.858;2023-12-07T01:34:32;14.68;;;6.88;;
26989;SDS011;14537;47.788;11.858;2023-12-07T01:36:58;13.75;;;6.70;;
26989;SDS011;14537;47.788;11.858;2023-12-07T01:39:23;14.15;;;7.18;;
26989;SDS011;14537;47.788;11.858;2023-12-07T01:41:49;15.07;;;6.53;;
26989;SDS011;14537;47.788;11.858;2023-12-07T01:44:16;12.23;;;6.63;;
26989;SDS011;14537;47.788;11.858;2023-12-07T01:46:42;14.25;;;6.32;;
26989;SDS011;14537;47.788;11.858;2023-12-07T01:49:08;15.45;;;6.68;;
26989;SDS011;14537;47.788;11.858;2023-12-07T01:51:34;17.15;;;6.78;;
26989;SDS011;14537;47.788;11.858;2023-12-07T01:54:00;16.20;;;6.53;;
26989;SDS011;14537;47.788;11.858;2023-12-07T01:56:26;18.35;;;7.18;;
26989;SDS011;14537;47.788;11.858;2023-12-07T01:58:52;15.02;;;6.85;;
26989;SDS011;14537;47.788;11.858;2023-12-07T02:01:18;17.83;;;7.15;;
26989;SDS011;14537;47.788;11.858;2023-12-07T02:03:44;15.63;;;7.57;;
26989;SDS011;14537;47.788;11.858;2023-12-07T02:06:09;13.75;;;6.63;;
26989;SDS011;14537;47.788;11.858;2023-12-07T02:08:35;14.10;;;6.65;;
26989;SDS011;14537;47.788;11.858;2023-12-07T02:11:06;13.48;;;6.65;;
26989;SDS011;14537;47.788;11.858;2023-12-07T02:13:34;16.33;;;7.45;;
26989;SDS011;14537;47.788;11.858;2023-12-07T02:16:00;17.63;;;7.57;;
26989;SDS011;14537;47.788;11.858;2023-12-07T02:18:52;17.05;;;7.45;;
26989;SDS011;14537;47.788;11.858;2023-12-07T02:21:30;15.98;;;7.10;;
26989;SDS011;14537;47.788;11.858;2023-12-07T02:24:08;14.02;;;7.00;;
26989;SDS011;14537;47.788;11.858;2023-12-07T02:26:36;15.60;;;7.28;;
26989;SDS011;14537;47.788;11.858;2023-12-07T02:29:03;17.73;;;7.68;;
26989;SDS011;14537;47.788;11.858;2023-12-07T02:31:28;15.88;;;7.53;;
26989;SDS011;14537;47.788;11.858;2023-12-07T02:33:54;16.77;;;7.88;;
26989;SDS011;14537;47.788;11.858;2023-12-07T02:36:20;14.85;;;6.70;;
26989;SDS011;14537;47.788;11.858;2023-12-07T02:38:49;18.43;;;8.37;;
26989;SDS011;14537;47.788;11.858;2023-12-07T02:41:17;18.13;;;7.85;;
26989;SDS011;14537;47.788;11.858;2023-12-07T02:43:44;14.25;;;6.75;;
26989;SDS011;14537;47.788;11.858;2023-12-07T02:46:10;17.55;;;7.90;;
26989;SDS011;14537;47.788;11.858;2023-12-07T02:48:36;18.42;;;8.20;;
26989;SDS011;14537;47.788;11.858;2023-12-07T02:51:02;15.90;;;6.97;;
26989;SDS011;14537;47.788;11.858;2023-12-07T02:53:27;15.88;;;7.38;;
26989;SDS011;14537;47.788;11.858;2023-12-07T02:55:53;14.63;;;6.47;;
26989;SDS011;14537;47.788;11.858;2023-12-07T02:58:18;16.90;;;7.38;;
26989;SDS011;14537;47.788;11.858;2023-12-07T03:00:44;16.70;;;7.40;;
26989;SDS011;14537;47.788;11.858;2023-12-07T03:03:10;19.13;;;7.78;;
26989;SDS011;14537;47.788;11.858;2023-12-07T03:05:35;19.52;;;8.25;;
26989;SDS011;14537;47.788;11.858;2023-12-07T03:08:01;16.40;;;7.70;;
26989;SDS011;14537;47.788;11.858;2023-12-07T03:10:26;16.35;;;7.50;;
26989;SDS011;14537;47.788;11.858;2023-12-07T03:12:52;15.75;;;7.60;;
26989;SDS011;14537;47.788;11.858;2023-12-07T03:15:18;18.90;;;7.90;;
26989;SDS011;14537;47.788;11.858;2023-12-07T03:17:43;15.50;;;8.00;;
26989;SDS011;14537;47.788;11.858;2023-12-07T03:20:09;21.85;;;8.73;;
26989;SDS011;14537;47.788;11.858;2023-12-07T03:22:35;15.57;;;7.38;;
26989;SDS011;14537;47.788;11.858;2023-12-07T03:25:01;13.10;;;5.82;;
26989;SDS011;14537;47.788;11.858;2023-12-07T03:27:26;16.42;;;7.05;;
26989;SDS011;14537;47.788;11.858;2023-12-07T03:29:53;21.90;;;7.78;;
26989;SDS011;14537;47.788;11.858;2023-12-07T03:32:19;13.77;;;7.00;;
26989;SDS011;14537;47.788;11.858;2023-12-07T03:34:44;30.05;;;7.78;;
26989;SDS011;14537;47.788;11.858;2023-12-07T03:37:10;18.13;;;7.88;;
26989;SDS011;14537;47.788;11.858;2023-12-07T03:39:35;15.82;;;7.70;;
26989;SDS011;14537;47.788;11.858;2023-12-07T03:42:01;20.02;;;8.73;;
26989;SDS011;14537;47.788;11.858;2023-12-07T03:44:27;14.85;;;7.43;;
26989;SDS011;14537;47.788;11.858;2023-12-07T03:46:52;19.15;;;8.07;;
26989;SDS011;14537;47.788;11.858;2023-12-07T03:49:18;13.82;;;7.28;;
26989;SDS011;14537;47.788;11.858;2023-12-07T03:51:44;16.42;;;7.95;;
26989;SDS011;14537;47.788;11.858;2023-12-07T03:54:09;16.30;;;7.70;;
26989;SDS011;14537;47.788;11.858;2023-12-07T03:56:35;16.75;;;7.93;;
26989;SDS011;14537;47.788;11.858;2023-12-07T03:59:01;14.30;;;6.90;;
26989;SDS011;14537;47.788;11.858;2023-12-07T04:01:27;17.70;;;7.60;;
26989;SDS011;14537;47.788;11.858;2023-12-07T04:03:54;17.15;;;7.25;;
26989;SDS011;14537;47.788;11.858;2023-12-07T04:06:21;17.75;;;8.00;;
26989;SDS011;14537;47.788;11.858;2023-12-07T04:08:48;17.20;;;7.82;;
26989;SDS011;14537;47.788;11.858;2023-12-07T04:11:13;21.75;;;7.20;;
26989;SDS011;14537;47.788;11.858;2023-12-07T04:13:40;18.02;;;7.53;;
26989;SDS011;14537;47.788;11.858;2023-12-07T04:16:06;18.17;;;8.77;;
26989;SDS011;14537;47.788;11.858;2023-12-07T04:18:32;22.63;;;8.00;;
26989;SDS011;14537;47.788;11.858;2023-12-07T04:20:58;21.13;;;7.75;;
26989;SDS011;14537;47.788;11.858;2023-12-07T04:23:24;18.23;;;8.18;;
26989;SDS011;14537;47.788;11.858;2023-12-07T04:25:50;19.63;;;7.90;;
26989;SDS011;14537;47.788;11.858;2023-12-07T04:28:15;22.00;;;8.05;;
26989;SDS011;14537;47.788;11.858;2023-12-07T04:30:41;22.40;;;8.20;;
26989;SDS011;14537;47.788;11.858;2023-12-07T04:33:07;17.73;;;7.20;;
26989;SDS011;14537;47.788;11.858;2023-12-07T04:35:33;18.80;;;7.50;;
26989;SDS011;14537;47.788;11.858;2023-12-07T04:37:59;17.05;;;7.30;;
26989;SDS011;14537;47.788;11.858;2023-12-07T04:40:25;16.23;;;6.68;;
26989;SDS011;14537;47.788;11.858;2023-12-07T04:42:51;17.38;;;7.55;;
26989;SDS011;14537;47.788;11.858;2023-12-07T04:45:16;21.35;;;7.53;;
26989;SDS011;14537;47.788;11.858;2023-12-07T04:47:42;14.55;;;6.80;;
26989;SDS011;14537;47.788;11.858;2023-12-07T04:50:08;16.42;;;7.45;;
26989;SDS011;14537;47.788;11.858;2023-12-07T04:52:35;13.68;;;6.82;;
26989;SDS011;14537;47.788;11.858;2023-12-07T04:55:00;12.88;;;6.38;;
26989;SDS011;14537;47.788;11.858;2023-12-07T04:57:26;19.45;;;7.18;;
26989;SDS011;14537;47.788;11.858;2023-12-07T04:59:52;14.70;;;6.20;;
26989;SDS011;14537;47.788;11.858;2023-12-07T05:02:17;18.20;;;6.82;;
26989;SDS011;14537;47.788;11.858;2023-12-07T05:04:43;13.68;;;6.72;;
26989;SDS011;14537;47.788;11.858;2023-12-07T05:07:12;14.63;;;6.73;;
26989;SDS011;14537;47.788;11.858;2023-12-07T05:09:38;13.93;;;6.00;;
26989;SDS011;14537;47.788;11.858;2023-12-07T05:12:05;14.45;;;6.65;;
26989;SDS011;14537;47.788;11.858;2023-12-07T05:14:31;12.35;;;6.18;;
26989;SDS011;14537;47.788;11.858;2023-12-07T05:16:58;15.43;;;6.90;;
26989;SDS011;14537;47.788;11.858;2023-12-07T05:19:24;13.65;;;6.50;;
26989;SDS011;14537;47.788;11.858;2023-12-07T05:21:50;17.92;;;6.63;;
26989;SDS011;14537;47.788;11.858;2023-12-07T05:24:16;16.75;;;6.43;;
26989;SDS011;14537;47.788;11.858;2023-12-07T05:26:43;18.80;;;8.10;;
26989;SDS011;14537;47.788;11.858;2023-12-07T05:29:11;13.30;;;6.00;;
26989;SDS011;14537;47.788;11.858;2023-12-07T05:31:37;14.93;;;6.00;;
26989;SDS011;14537;47.788;11.858;2023-12-07T05:34:03;12.65;;;5.47;;
26989;SDS011;14537;47.788;11.858;2023-12-07T05:36:28;9.98;;;5.05;;
26989;SDS011;14537;47.788;11.858;2023-12-07T05:38:54;11.43;;;5.32;;
26989;SDS011;14537;47.788;11.858;2023-12-07T05:41:20;14.15;;;6.00;;
26989;SDS011;14537;47.788;11.858;2023-12-07T05:43:46;12.20;;;5.18;;
26989;SDS011;14537;47.788;11.858;2023-12-07T05:46:11;12.02;;;5.47;;
26989;SDS011;14537;47.788;11.858;2023-12-07T05:48:37;12.10;;;5.25;;
26989;SDS011;14537;47.788;11.858;2023-12-07T05:51:03;12.98;;;5.70;;
26989;SDS011;14537;47.788;11.858;2023-12-07T05:53:29;11.68;;;5.40;;
26989;SDS011;14537;47.788;11.858;2023-12-07T05:55:57;11.73;;;5.47;;
26989;SDS011;14537;47.788;11.858;2023-12-07T05:58:23;10.95;;;5.20;;
26989;SDS011;14537;47.788;11.858;2023-12-07T06:00:49;13.32;;;5.95;;
26989;SDS011;14537;47.788;11.858;2023-12-07T06:03:14;11.45;;;5.43;;
26989;SDS011;14537;47.788;11.858;2023-12-07T06:05:40;10.23;;;5.07;;
26989;SDS011;14537;47.788;11.858;2023-12-07T06:08:06;10.48;;;5.40;;
26989;SDS011;14537;47.788;11.858;2023-12-07T06:10:32;7.93;;;4.10;;
26989;SDS011;14537;47.788;11.858;2023-12-07T06:12:58;12.77;;;5.07;;
26989;SDS011;14537;47.788;11.858;2023-12-07T06:15:25;10.20;;;5.40;;
26989;SDS011;14537;47.788;11.858;2023-12-07T06:17:52;10.45;;;5.35;;
26989;SDS011;14537;47.788;11.858;2023-12-07T06:20:19;8.98;;;4.40;;
26989;SDS011;14537;47.788;11.858;2023-12-07T06:22:45;9.15;;;4.82;;
26989;SDS011;14537;47.788;11.858;2023-12-07T06:25:10;8.85;;;4.22;;
26989;SDS011;14537;47.788;11.858;2023-12-07T06:27:36;12.85;;;4.00;;
26989;SDS011;14537;47.788;11.858;2023-12-07T06:30:03;10.63;;;4.47;;
26989;SDS011;14537;47.788;11.858;2023-12-07T06:32:31;9.20;;;4.00;;
26989;SDS011;14537;47.788;11.858;2023-12-07T06:34:57;7.85;;;3.58;;
26989;SDS011;14537;47.788;11.858;2023-12-07T06:37:23;10.35;;;5.00;;
26989;SDS011;14537;47.788;11.858;2023-12-07T06:39:48;12.77;;;4.32;;
26989;SDS011;14537;47.788;11.858;2023-12-07T06:42:14;6.50;;;3.83;;
26989;SDS011;14537;47.788;11.858;2023-12-07T06:44:40;12.65;;;4.53;;
26989;SDS011;14537;47.788;11.858;2023-12-07T06:47:08;8.68;;;3.90;;
26989;SDS011;14537;47.788;11.858;2023-12-07T06:49:34;7.75;;;3.80;;
26989;SDS011;14537;47.788;11.858;2023-12-07T06:52:01;10.43;;;4.20;;
26989;SDS011;14537;47.788;11.858;2023-12-07T06:54:26;5.30;;;3.10;;
26989;SDS011;14537;47.788;11.858;2023-12-07T06:56:52;4.93;;;2.70;;
26989;SDS011;14537;47.788;11.858;2023-12-07T06:59:18;5.70;;;3.55;;
26989;SDS011;14537;47.788;11.858;2023-12-07T07:01:45;10.05;;;3.33;;
26989;SDS011;14537;47.788;11.858;2023-12-07T07:04:10;7.18;;;3.45;;
26989;SDS011;14537;47.788;11.858;2023-12-07T07:06:37;5.82;;;2.97;;
26989;SDS011;14537;47.788;11.858;2023-12-07T07:09:04;6.05;;;3.20;;
26989;SDS011;14537;47.788;11.858;2023-12-07T07:11:30;4.95;;;2.83;;
26989;SDS011;14537;47.788;11.858;2023-12-07T07:13:56;4.95;;;2.25;;
26989;SDS011;14537;47.788;11.858;2023-12-07T07:16:21;5.22;;;2.92;;
26989;SDS011;14537;47.788;11.858;2023-12-07T07:18:47;6.07;;;2.72;;
26989;SDS011;14537;47.788;11.858;2023-12-07T07:21:13;5.07;;;2.65;;
26989;SDS011;14537;47.788;11.858;2023-12-07T07:23:38;7.20;;;3.20;;
26989;SDS011;14537;47.788;11.858;2023-12-07T07:26:04;4.57;;;2.53;;
26989;SDS011;14537;47.788;11.858;2023-12-07T07:28:30;5.00;;;2.58;;
26989;SDS011;14537;47.788;11.858;2023-12-07T07:30:55;7.20;;;3.33;;
26989;SDS011;14537;47.788;11.858;2023-12-07T07:33:21;6.68;;;3.30;;
26989;SDS011;14537;47.788;11.858;2023-12-07T07:35:46;7.65;;;3.58;;
26989;SDS011;14537;47.788;11.858;2023-12-07T07:38:12;5.80;;;3.15;;
26989;SDS011;14537;47.788;11.858;2023-12-07T07:40:39;6.07;;;3.00;;
26989;SDS011;14537;47.788;11.858;2023-12-07T07:43:05;6.00;;;3.28;;
26989;SDS011;14537;47.788;11.858;2023-12-07T07:45:33;6.47;;;3.22;;
26989;SDS011;14537;47.788;11.858;2023-12-07T07:48:00;10.25;;;4.03;;
26989;SDS011;14537;47.788;11.858;2023-12-07T07:50:25;9.48;;;3.17;;
26989;SDS011;14537;47.788;11.858;2023-12-07T07:52:51;6.75;;;3.63;;
26989;SDS011;14537;47.788;11.858;2023-12-07T07:55:16;5.20;;;2.97;;
26989;SDS011;14537;47.788;11.858;2023-12-07T07:57:43;9.68;;;3.58;;
26989;SDS011;14537;47.788;11.858;2023-12-07T08:00:08;7.25;;;3.40;;
26989;SDS011;14537;47.788;11.858;2023-12-07T08:02:35;7.65;;;3.30;;
26989;SDS011;14537;47.788;11.858;2023-12-07T08:05:03;6.07;;;3.65;;
26989;SDS011;14537;47.788;11.858;2023-12-07T08:07:32;7.70;;;2.95;;
26989;SDS011;14537;47.788;11.858;2023-12-07T08:09:58;12.05;;;3.60;;
26989;SDS011;14537;47.788;11.858;2023-12-07T08:12:23;9.90;;;4.45;;
26989;SDS011;14537;47.788;11.858;2023-12-07T08:14:49;13.20;;;4.55;;
26989;SDS011;14537;47.788;11.858;2023-12-07T08:17:15;9.05;;;3.70;;
26989;SDS011;14537;47.788;11.858;2023-12-07T08:19:41;5.40;;;2.95;;
26989;SDS011;14537;47.788;11.858;2023-12-07T08:22:07;7.85;;;3.47;;
26989;SDS011;14537;47.788;11.858;2023-12-07T08:24:33;8.10;;;3.75;;
26989;SDS011;14537;47.788;11.858;2023-12-07T08:26:59;5.65;;;3.22;;
26989;SDS011;14537;47.788;11.858;2023-12-07T08:29:25;8.13;;;3.45;;
26989;SDS011;14537;47.788;11.858;2023-12-07T08:31:53;6.82;;;3.08;;
26989;SDS011;14537;47.788;11.858;2023-12-07T08:34:19;5.93;;;2.95;;
26989;SDS011;14537;47.788;11.858;2023-12-07T08:36:45;7.72;;;3.42;;
26989;SDS011;14537;47.788;11.858;2023-12-07T08:39:10;8.18;;;3.60;;
26989;SDS011;14537;47.788;11.858;2023-12-07T08:41:36;7.43;;;4.57;;
26989;SDS011;14537;47.788;11.858;2023-12-07T08:44:02;7.30;;;3.60;;
26989;SDS011;14537;47.788;11.858;2023-12-07T08:46:28;9.05;;;4.00;;
26989;SDS011;14537;47.788;11.858;2023-12-07T08:48:54;9.38;;;4.13;;
26989;SDS011;14537;47.788;11.858;2023-12-07T08:51:21;9.30;;;4.25;;
26989;SDS011;14537;47.788;11.858;2023-12-07T08:53:47;6.97;;;4.18;;
26989;SDS011;14537;47.788;11.858;2023-12-07T08:56:12;7.47;;;3.65;;
26989;SDS011;14537;47.788;11.858;2023-12-07T08:58:38;7.88;;;3.97;;
26989;SDS011;14537;47.788;11.858;2023-12-07T09:01:04;8.77;;;4.05;;
26989;SDS011;14537;47.788;11.858;2023-12-07T09:03:33;6.90;;;3.40;;
26989;SDS011;14537;47.788;11.858;2023-12-07T09:05:59;13.35;;;4.88;;
26989;SDS011;14537;47.788;11.858;2023-12-07T09:08:28;10.27;;;4.40;;
26989;SDS011;14537;47.788;11.858;2023-12-07T09:10:54;23.55;;;4.20;;
26989;SDS011;14537;47.788;11.858;2023-12-07T09:13:19;7.93;;;4.05;;
26989;SDS011;14537;47.788;11.858;2023-12-07T09:15:45;8.73;;;3.90;;
26989;SDS011;14537;47.788;11.858;2023-12-07T09:18:10;13.73;;;3.67;;
26989;SDS011;14537;47.788;11.858;2023-12-07T09:20:36;8.88;;;3.95;;
26989;SDS011;14537;47.788;11.858;2023-12-07T09:23:10;10.25;;;4.10;;
26989;SDS011;14537;47.788;11.858;2023-12-07T09:25:37;5.82;;;3.17;;
26989;SDS011;14537;47.788;11.858;2023-12-07T09:28:06;9.43;;;4.35;;
26989;SDS011;14537;47.788;11.858;2023-12-07T09:30:32;10.40;;;4.05;;
26989;SDS011;14537;47.788;11.858;2023-12-07T09:32:59;11.77;;;4.32;;
26989;SDS011;14537;47.788;11.858;2023-12-07T09:35:25;7.35;;;3.88;;
26989;SDS011;14537;47.788;11.858;2023-12-07T09:37:51;11.13;;;4.68;;
26989;SDS011;14537;47.788;11.858;2023-12-07T09:40:23;9.82;;;4.00;;
26989;SDS011;14537;47.788;11.858;2023-12-07T09:42:50;8.32;;;4.15;;
26989;SDS011;14537;47.788;11.858;2023-12-07T09:45:17;7.95;;;4.00;;
26989;SDS011;14537;47.788;11.858;2023-12-07T09:47:47;7.43;;;4.22;;
26989;SDS011;14537;47.788;11.858;2023-12-07T09:50:18;9.80;;;4.35;;
26989;SDS011;14537;47.788;11.858;2023-12-07T09:52:49;8.52;;;4.55;;
26989;SDS011;14537;47.788;11.858;2023-12-07T09:55:20;13.73;;;5.00;;
26989;SDS011;14537;47.788;11.858;2023-12-07T09:57:47;8.43;;;4.10;;
26989;SDS011;14537;47.788;11.858;2023-12-07T10:00:17;8.20;;;3.53;;
26989;SDS011;14537;47.788;11.858;2023-12-07T10:02:46;8.77;;;3.95;;
26989;SDS011;14537;47.788;11.858;2023-12-07T10:05:12;9.40;;;4.72;;
26989;SDS011;14537;47.788;11.858;2023-12-07T10:07:40;8.10;;;3.92;;
26989;SDS011;14537;47.788;11.858;2023-12-07T10:10:11;9.00;;;4.60;;
26989;SDS011;14537;47.788;11.858;2023-12-07T10:12:43;12.18;;;4.90;;
26989;SDS011;14537;47.788;11.858;2023-12-07T10:15:16;11.90;;;5.00;;
26989;SDS011;14537;47.788;11.858;2023-12-07T10:17:43;9.55;;;5.00;;
26989;SDS011;14537;47.788;11.858;2023-12-07T10:20:23;10.63;;;5.10;;
26989;SDS011;14537;47.788;11.858;2023-12-07T10:23:05;8.90;;;4.20;;
26989;SDS011;14537;47.788;11.858;2023-12-07T10:25:38;10.95;;;4.18;;
26989;SDS011;14537;47.788;11.858;2023-12-07T10:28:05;9.80;;;4.55;;
26989;SDS011;14537;47.788;11.858;2023-12-07T10:30:33;7.80;;;3.90;;
26989;SDS011;14537;47.788;11.858;2023-12-07T10:32:59;9.80;;;4.78;;
26989;SDS011;14537;47.788;11.858;2023-12-07T10:35:24;7.20;;;3.67;;
26989;SDS011;14537;47.788;11.858;2023-12-07T10:37:50;7.70;;;4.20;;
26989;SDS011;14537;47.788;11.858;2023-12-07T10:40:16;9.30;;;4.32;;
26989;SDS011;14537;47.788;11.858;2023-12-07T10:42:46;10.82;;;4.63;;
26989;SDS011;14537;47.788;11.858;2023-12-07T10:45:13;8.82;;;4.30;;
26989;SDS011;14537;47.788;11.858;2023-12-07T10:47:40;8.38;;;4.03;;
26989;SDS011;14537;47.788;11.858;2023-12-07T10:50:09;8.35;;;4.55;;
26989;SDS011;14537;47.788;11.858;2023-12-07T10:52:45;7.13;;;4.32;;
26989;SDS011;14537;47.788;11.858;2023-12-07T10:55:16;6.80;;;3.53;;
26989;SDS011;14537;47.788;11.858;2023-12-07T10:57:45;7.85;;;3.72;;
26989;SDS011;14537;47.788;11.858;2023-12-07T11:00:12;8.90;;;3.65;;
26989;SDS011;14537;47.788;11.858;2023-12-07T11:02:38;6.57;;;3.50;;
26989;SDS011;14537;47.788;11.858;2023-12-07T11:05:07;10.98;;;3.60;;
26989;SDS011;14537;47.788;11.858;2023-12-07T11:07:47;6.88;;;3.53;;
26989;SDS011;14537;47.788;11.858;2023-12-07T11:13:24;9.18;;;3.60;;
26989;SDS011;14537;47.788;11.858;2023-12-07T11:15:55;10.05;;;3.65;;
26989;SDS011;14537;47.788;11.858;2023-12-07T11:18:24;6.80;;;3.70;;
26989;SDS011;14537;47.788;11.858;2023-12-07T11:20:51;7.10;;;3.53;;
26989;SDS011;14537;47.788;11.858;2023-12-07T11:23:19;10.05;;;3.90;;
26989;SDS011;14537;47.788;11.858;2023-12-07T11:25:45;6.00;;;3.75;;
26989;SDS011;14537;47.788;11.858;2023-12-07T11:28:13;7.50;;;3.72;;
26989;SDS011;14537;47.788;11.858;2023-12-07T11:30:45;9.15;;;4.18;;
26989;SDS011;14537;47.788;11.858;2023-12-07T11:33:11;8.07;;;3.10;;
26989;SDS011;14537;47.788;11.858;2023-12-07T11:38:36;8.88;;;2.95;;
26989;SDS011;14537;47.788;11.858;2023-12-07T11:41:02;8.43;;;3.17;;
26989;SDS011;14537;47.788;11.858;2023-12-07T11:46:09;7.80;;;3.30;;
26989;SDS011;14537;47.788;11.858;2023-12-07T11:48:36;4.85;;;2.92;;
26989;SDS011;14537;47.788;11.858;2023-12-07T11:51:03;8.57;;;3.38;;
26989;SDS011;14537;47.788;11.858;2023-12-07T11:53:31;5.43;;;2.90;;
26989;SDS011;14537;47.788;11.858;2023-12-07T11:56:01;4.90;;;2.72;;
26989;SDS011;14537;47.788;11.858;2023-12-07T11:58:29;4.05;;;2.30;;
26989;SDS011;14537;47.788;11.858;2023-12-07T12:00:56;4.43;;;2.28;;
26989;SDS011;14537;47.788;11.858;2023-12-07T12:03:23;4.05;;;2.45;;
26989;SDS011;14537;47.788;11.858;2023-12-07T12:05:49;3.92;;;2.13;;
26989;SDS011;14537;47.788;11.858;2023-12-07T12:08:15;3.13;;;1.85;;
26989;SDS011;14537;47.788;11.858;2023-12-07T12:10:42;3.60;;;2.08;;
26989;SDS011;14537;47.788;11.858;2023-12-07T12:13:08;4.55;;;2.17;;
26989;SDS011;14537;47.788;11.858;2023-12-07T12:15:34;4.60;;;2.10;;
26989;SDS011;14537;47.788;11.858;2023-12-07T12:18:00;5.28;;;2.25;;
26989;SDS011;14537;47.788;11.858;2023-12-07T12:20:26;4.63;;;2.38;;
26989;SDS011;14537;47.788;11.858;2023-12-07T12:22:52;6.68;;;2.47;;
26989;SDS011;14537;47.788;11.858;2023-12-07T12:25:22;6.00;;;3.15;;
26989;SDS011;14537;47.788;11.858;2023-12-07T12:27:54;4.25;;;2.65;;
26989;SDS011;14537;47.788;11.858;2023-12-07T12:30:21;4.93;;;2.38;;
26989;SDS011;14537;47.788;11.858;2023-12-07T12:32:50;5.22;;;2.97;;
26989;SDS011;14537;47.788;11.858;2023-12-07T12:35:16;4.93;;;2.67;;
26989;SDS011;14537;47.788;11.858;2023-12-07T12:37:43;4.43;;;2.65;;
26989;SDS011;14537;47.788;11.858;2023-12-07T12:40:13;5.90;;;2.72;;
26989;SDS011;14537;47.788;11.858;2023-12-07T12:42:44;3.92;;;2.17;;
26989;SDS011;14537;47.788;11.858;2023-12-07T12:45:12;4.63;;;2.80;;
26989;SDS011;14537;47.788;11.858;2023-12-07T12:47:39;6.47;;;2.92;;
26989;SDS011;14537;47.788;11.858;2023-12-07T12:50:09;4.75;;;2.45;;
26989;SDS011;14537;47.788;11.858;2023-12-07T12:52:35;4.00;;;2.60;;
26989;SDS011;14537;47.788;11.858;2023-12-07T12:55:02;5.07;;;2.95;;
26989;SDS011;14537;47.788;11.858;2023-12-07T12:57:31;10.30;;;3.40;;
26989;SDS011;14537;47.788;11.858;2023-12-07T12:59:57;11.20;;;5.00;;
26989;SDS011;14537;47.788;11.858;2023-12-07T13:02:25;8.35;;;3.63;;
26989;SDS011;14537;47.788;11.858;2023-12-07T13:04:51;4.90;;;2.95;;
26989;SDS011;14537;47.788;11.858;2023-12-07T13:07:17;8.85;;;2.90;;
26989;SDS011;14537;47.788;11.858;2023-12-07T13:09:44;7.18;;;3.30;;
26989;SDS011;14537;47.788;11.858;2023-12-07T13:12:09;5.47;;;2.97;;
26989;SDS011;14537;47.788;11.858;2023-12-07T13:14:35;5.63;;;3.17;;
26989;SDS011;14537;47.788;11.858;2023-12-07T13:17:03;5.20;;;3.22;;
26989;SDS011;14537;47.788;11.858;2023-12-07T13:19:29;6.03;;;2.75;;
26989;SDS011;14537;47.788;11.858;2023-12-07T13:21:55;10.18;;;3.85;;
26989;SDS011;14537;47.788;11.858;2023-12-07T13:24:21;6.85;;;3.15;;
26989;SDS011;14537;47.788;11.858;2023-12-07T13:26:47;6.28;;;3.47;;
26989;SDS011;14537;47.788;11.858;2023-12-07T13:29:12;9.82;;;3.83;;
26989;SDS011;14537;47.788;11.858;2023-12-07T13:31:38;9.20;;;4.30;;
26989;SDS011;14537;47.788;11.858;2023-12-07T13:34:04;11.63;;;3.72;;
26989;SDS011;14537;47.788;11.858;2023-12-07T13:36:29;9.52;;;3.78;;
26989;SDS011;14537;47.788;11.858;2023-12-07T13:38:56;8.82;;;3.88;;
26989;SDS011;14537;47.788;11.858;2023-12-07T13:41:22;8.10;;;4.10;;
26989;SDS011;14537;47.788;11.858;2023-12-07T13:43:48;10.18;;;3.88;;
26989;SDS011;14537;47.788;11.858;2023-12-07T13:46:15;10.65;;;3.17;;
26989;SDS011;14537;47.788;11.858;2023-12-07T13:48:44;8.40;;;4.18;;
26989;SDS011;14537;47.788;11.858;2023-12-07T13:51:10;8.95;;;4.20;;
26989;SDS011;14537;47.788;11.858;2023-12-07T13:53:35;6.32;;;3.58;;
26989;SDS011;14537;47.788;11.858;2023-12-07T13:56:02;6.03;;;3.42;;
26989;SDS011;14537;47.788;11.858;2023-12-07T13:58:29;6.03;;;3.63;;
26989;SDS011;14537;47.788;11.858;2023-12-07T14:00:55;11.80;;;4.03;;
26989;SDS011;14537;47.788;11.858;2023-12-07T14:03:21;7.82;;;3.85;;
26989;SDS011;14537;47.788;11.858;2023-12-07T14:05:48;13.35;;;5.10;;
26989;SDS011;14537;47.788;11.858;2023-12-07T14:08:14;8.05;;;4.40;;
26989;SDS011;14537;47.788;11.858;2023-12-07T14:10:39;9.68;;;3.83;;
26989;SDS011;14537;47.788;11.858;2023-12-07T14:13:05;4.85;;;3.20;;
26989;SDS011;14537;47.788;11.858;2023-12-07T14:15:30;8.20;;;4.25;;
26989;SDS011;14537;47.788;11.858;2023-12-07T14:18:00;7.82;;;3.95;;
26989;SDS011;14537;47.788;11.858;2023-12-07T14:20:26;5.57;;;3.33;;
26989;SDS011;14537;47.788;11.858;2023-12-07T14:22:53;6.35;;;3.55;;
26989;SDS011;14537;47.788;11.858;2023-12-07T14:25:19;6.00;;;3.38;;
26989;SDS011;14537;47.788;11.858;2023-12-07T14:27:45;8.98;;;3.78;;
26989;SDS011;14537;47.788;11.858;2023-12-07T14:30:10;7.30;;;3.70;;
26989;SDS011;14537;47.788;11.858;2023-12-07T14:32:36;6.93;;;3.40;;
26989;SDS011;14537;47.788;11.858;2023-12-07T14:35:02;8.07;;;3.58;;